Alliance, Nebraska
Current Conditions -  °F | °C
As of 2:53 PM on Friday 26 Dec 2014 (Local Time) from KAIA Reporting Station
Overcast Overcast  
Wind Chill:   Ceiling: 1400
Heat Index: 18°   Visibility: 10mi
Dew Point: 14°   Wind: 13mph
Humidity: 84%   Direction: 20°NNE
Pressure: 30.01"   Gusts: NA
Location:  42.1°N, 102.87°W
Report Text: KAIA 262153Z AUTO 02011KT 10SM OVC014 M08/M10 A3001 RMK AO2 SNE45 SLP213 P0000 T10781100
Loading
Personal Weather Stations






























Interactive Weather Map New forecast layout! Learn more

10-Day Weather Forecast

Advertisements
Track Severe Weather on mobile